createdAt,value
2023-04-25T00:00:27.105Z,12.06
2023-04-25T00:02:57.864Z,12.02
2023-04-25T00:05:26.788Z,11.87
2023-04-25T00:07:56.599Z,12.05
2023-04-25T00:10:25.548Z,11.75
2023-04-25T00:12:53.513Z,11.95
2023-04-25T00:15:25.562Z,12.00
2023-04-25T00:17:54.193Z,11.58
2023-04-25T00:20:23.125Z,11.86
2023-04-25T00:22:52.278Z,11.89
2023-04-25T00:25:20.491Z,12.24
2023-04-25T00:27:48.474Z,12.18
2023-04-25T00:30:16.943Z,12.20
2023-04-25T00:32:45.328Z,11.97
2023-04-25T00:35:13.332Z,12.00
2023-04-25T00:37:41.695Z,12.16
2023-04-25T00:40:10.149Z,12.20
2023-04-25T00:42:39.383Z,12.32
2023-04-25T00:45:08.779Z,12.16
2023-04-25T00:47:37.369Z,11.98
2023-04-25T00:50:08.346Z,12.27
2023-04-25T00:52:37.763Z,11.85
2023-04-25T00:55:06.444Z,11.85
2023-04-25T00:57:34.871Z,11.64
2023-04-25T01:00:06.505Z,11.83
2023-04-25T01:02:35.194Z,11.70
2023-04-25T01:05:04.675Z,11.66
2023-04-25T01:07:33.450Z,11.19
2023-04-25T01:10:01.588Z,11.39
2023-04-25T01:12:30.096Z,11.45
2023-04-25T01:14:58.201Z,11.21
2023-04-25T01:17:26.347Z,11.34
2023-04-25T01:19:55.001Z,11.31
2023-04-25T01:22:23.237Z,11.45
2023-04-25T01:24:52.206Z,11.51
2023-04-25T01:27:22.086Z,11.26
2023-04-25T01:29:50.796Z,11.41
2023-04-25T01:32:19.640Z,11.45
2023-04-25T01:34:48.276Z,11.62
2023-04-25T01:37:16.795Z,11.53
2023-04-25T01:39:46.196Z,11.53
2023-04-25T01:42:14.859Z,11.41
2023-04-25T01:44:42.914Z,11.61
2023-04-25T01:47:11.014Z,11.23
2023-04-25T01:49:39.315Z,11.35
2023-04-25T01:52:07.478Z,11.52
2023-04-25T01:54:35.478Z,11.29
2023-04-25T01:57:04.791Z,11.53
2023-04-25T01:59:33.747Z,11.45
2023-04-25T02:02:04.903Z,11.48
2023-04-25T02:04:34.027Z,11.50
2023-04-25T02:07:02.675Z,11.42
2023-04-25T02:09:31.288Z,11.34
2023-04-25T02:11:59.988Z,11.41
2023-04-25T02:14:28.125Z,11.56
2023-04-25T02:16:56.358Z,11.27
2023-04-25T02:19:24.920Z,11.46
2023-04-25T02:21:52.914Z,11.38
2023-04-25T02:24:20.979Z,11.17
2023-04-25T02:26:50.501Z,11.20
2023-04-25T02:29:18.858Z,11.24
2023-04-25T02:31:46.941Z,11.23
2023-04-25T02:34:14.899Z,10.91
2023-04-25T02:36:43.241Z,11.27
2023-04-25T02:39:11.928Z,11.19
2023-04-25T02:41:39.891Z,11.47
2023-04-25T02:44:08.277Z,11.49
2023-04-25T02:46:39.416Z,11.32
2023-04-25T02:49:08.258Z,11.32
2023-04-25T02:51:36.828Z,11.20
2023-04-25T02:54:05.083Z,11.22
2023-04-25T02:56:33.815Z,11.14
2023-04-25T02:59:01.850Z,10.98
2023-04-25T03:01:30.567Z,11.13
2023-04-25T03:03:59.022Z,10.90
2023-04-25T03:06:27.085Z,11.11
2023-04-25T03:08:55.137Z,10.77
2023-04-25T03:11:23.462Z,11.03
2023-04-25T03:13:51.786Z,11.15
2023-04-25T03:16:21.404Z,10.78
2023-04-25T03:18:52.015Z,10.67
2023-04-25T03:21:20.491Z,10.42
2023-04-25T03:23:48.763Z,10.66
2023-04-25T03:26:17.291Z,10.81
2023-04-25T03:28:45.560Z,10.32
2023-04-25T03:31:13.998Z,10.75
2023-04-25T03:33:42.480Z,10.60
2023-04-25T03:36:10.921Z,10.56
2023-04-25T03:38:39.355Z,10.59
2023-04-25T03:41:07.920Z,10.92
2023-04-25T03:43:36.375Z,10.77
2023-04-25T03:46:04.921Z,10.47
2023-04-25T03:48:33.321Z,10.74
2023-04-25T03:51:01.632Z,10.49
2023-04-25T03:53:30.555Z,10.83
2023-04-25T03:56:00.453Z,10.71
2023-04-25T03:58:28.428Z,10.64
2023-04-25T04:00:56.601Z,10.67
2023-04-25T04:03:25.327Z,10.67
2023-04-25T04:05:53.649Z,10.48
2023-04-25T04:08:21.854Z,10.42
2023-04-25T04:10:50.213Z,10.64
2023-04-25T04:13:18.513Z,10.57
2023-04-25T04:15:46.557Z,11.00
2023-04-25T04:18:16.041Z,10.62
2023-04-25T04:20:44.282Z,10.59
2023-04-25T04:23:13.203Z,10.47
2023-04-25T04:25:41.763Z,10.22
2023-04-25T04:28:10.023Z,10.49
2023-04-25T04:30:38.697Z,10.76
2023-04-25T04:33:07.297Z,10.48
2023-04-25T04:35:35.758Z,10.63
2023-04-25T04:38:03.876Z,10.26
2023-04-25T04:40:33.472Z,10.05
2023-04-25T04:43:01.968Z,10.19
2023-04-25T04:45:32.782Z,9.97
2023-04-25T04:48:01.151Z,9.89
2023-04-25T04:50:29.802Z,10.12
2023-04-25T04:52:58.937Z,9.74
2023-04-25T04:55:27.451Z,9.65
2023-04-25T04:57:56.874Z,9.49
2023-04-25T05:00:26.218Z,9.72
2023-04-25T05:02:57.418Z,9.70
2023-04-25T05:05:26.258Z,9.67
2023-04-25T05:07:54.875Z,9.65
2023-04-25T05:10:23.419Z,9.30
2023-04-25T05:12:55.239Z,9.58
2023-04-25T05:15:23.505Z,9.53
2023-04-25T05:17:51.759Z,9.55
2023-04-25T05:20:20.476Z,9.46
2023-04-25T05:22:50.771Z,9.28
2023-04-25T05:25:19.266Z,9.49
2023-04-25T05:27:48.816Z,9.44
2023-04-25T05:30:17.049Z,9.52
2023-04-25T05:32:46.438Z,9.64
2023-04-25T05:35:15.315Z,9.56
2023-04-25T05:37:43.882Z,9.79
2023-04-25T05:40:12.214Z,9.93
2023-04-25T05:42:40.804Z,9.89
2023-04-25T05:45:09.430Z,10.15
2023-04-25T05:47:37.630Z,9.93
2023-04-25T05:50:06.890Z,9.94
2023-04-25T05:52:35.131Z,10.17
2023-04-25T05:55:03.374Z,10.23
2023-04-25T05:57:32.492Z,10.22
2023-04-25T06:00:01.607Z,10.43
2023-04-25T06:02:31.933Z,10.63
2023-04-25T06:05:01.351Z,10.49
2023-04-25T06:07:29.696Z,10.47
2023-04-25T06:09:58.186Z,10.39
2023-04-25T06:12:27.128Z,10.23
2023-04-25T06:14:55.606Z,10.35
2023-04-25T06:17:23.713Z,10.25
2023-04-25T06:19:52.696Z,10.41
2023-04-25T06:22:20.800Z,10.97
2023-04-25T06:24:48.811Z,10.61
2023-04-25T06:27:17.242Z,10.77
2023-04-25T06:29:45.328Z,10.82
2023-04-25T06:32:13.351Z,10.77
2023-04-25T06:34:42.058Z,11.35
2023-04-25T06:37:10.268Z,11.12
2023-04-25T06:39:40.609Z,11.28
2023-04-25T06:42:09.765Z,11.34
2023-04-25T06:44:48.540Z,11.44
2023-04-25T06:47:22.010Z,11.53
2023-04-25T06:49:52.958Z,11.79
2023-04-25T06:52:23.040Z,11.64
2023-04-25T06:54:52.228Z,11.66
2023-04-25T06:57:25.703Z,11.88
2023-04-25T06:59:55.391Z,11.91
2023-04-25T07:02:23.861Z,12.40
2023-04-25T07:04:52.672Z,12.26
2023-04-25T07:07:21.174Z,12.86
2023-04-25T07:09:49.410Z,12.71
2023-04-25T07:12:17.868Z,13.10
2023-04-25T07:14:45.859Z,13.11
2023-04-25T07:17:14.087Z,13.27
2023-04-25T07:19:42.631Z,13.94
2023-04-25T07:22:10.982Z,13.97
2023-04-25T07:24:40.849Z,13.49
2023-04-25T07:27:09.361Z,14.09
2023-04-25T07:29:39.565Z,13.93
2023-04-25T07:32:09.110Z,14.14
2023-04-25T07:34:39.868Z,14.56
2023-04-25T07:37:08.043Z,14.95
2023-04-25T07:39:36.527Z,14.56
2023-04-25T07:42:05.377Z,14.57
2023-04-25T07:44:39.597Z,14.74
2023-04-25T07:47:08.802Z,14.02
2023-04-25T07:49:38.447Z,14.46
2023-04-25T07:52:09.954Z,14.41
2023-04-25T07:54:39.013Z,13.51
2023-04-25T07:57:07.761Z,13.56
2023-04-25T07:59:36.336Z,13.52
2023-04-25T08:02:04.979Z,13.37
2023-04-25T08:04:33.714Z,13.79
2023-04-25T08:07:02.145Z,13.68
2023-04-25T08:09:35.696Z,13.20
2023-04-25T08:12:05.578Z,13.26
2023-04-25T08:14:37.159Z,13.78
2023-04-25T08:17:06.440Z,13.78
2023-04-25T08:19:35.018Z,13.61
2023-04-25T08:22:03.321Z,13.76
2023-04-25T08:24:32.450Z,13.68
2023-04-25T08:27:01.936Z,13.80
2023-04-25T08:29:30.101Z,13.62
2023-04-25T08:31:58.820Z,13.86
2023-04-25T08:34:27.136Z,13.79
2023-04-25T08:36:55.314Z,13.80
2023-04-25T08:39:24.035Z,13.80
2023-04-25T08:41:57.783Z,13.41
2023-04-25T08:44:26.323Z,13.39
2023-04-25T08:46:55.332Z,13.61
2023-04-25T08:49:24.178Z,14.10
2023-04-25T08:51:53.884Z,13.61
2023-04-25T08:54:35.403Z,13.15
2023-04-25T08:57:05.735Z,12.93
2023-04-25T08:59:36.124Z,12.81
2023-04-25T09:02:07.484Z,13.15
2023-04-25T09:04:36.349Z,12.82
2023-04-25T09:07:04.892Z,12.95
2023-04-25T09:09:33.411Z,13.25
2023-04-25T09:12:02.839Z,13.64
2023-04-25T09:14:31.619Z,13.39
2023-04-25T09:17:02.684Z,13.51
2023-04-25T09:19:41.411Z,13.64
2023-04-25T09:22:11.520Z,13.79
2023-04-25T09:24:52.379Z,14.00
2023-04-25T09:27:28.197Z,13.86
2023-04-25T09:30:01.806Z,14.52
2023-04-25T09:32:31.871Z,14.40
2023-04-25T09:34:59.983Z,14.33
2023-04-25T09:37:30.316Z,14.46
2023-04-25T09:40:08.124Z,14.31
2023-04-25T09:42:36.880Z,14.38
2023-04-25T09:45:05.868Z,14.49
2023-04-25T09:47:39.142Z,14.89
2023-04-25T09:50:16.697Z,14.74
2023-04-25T09:52:45.483Z,14.59
2023-04-25T09:55:14.482Z,14.41
2023-04-25T09:57:42.898Z,14.58
2023-04-25T10:00:14.170Z,14.59
2023-04-25T10:02:44.081Z,14.41
2023-04-25T10:05:13.974Z,14.01
2023-04-25T10:07:42.355Z,14.12
2023-04-25T10:10:13.692Z,14.37
2023-04-25T10:12:44.678Z,14.56
2023-04-25T10:15:13.120Z,14.81
2023-04-25T10:17:41.708Z,14.85
2023-04-25T10:20:12.762Z,15.23
2023-04-25T10:22:46.185Z,15.47
2023-04-25T10:25:15.208Z,15.16
2023-04-25T10:27:43.556Z,15.40
2023-04-25T10:30:17.082Z,15.57
2023-04-25T10:32:46.875Z,15.78
2023-04-25T10:35:16.959Z,15.98
2023-04-25T10:38:05.891Z,15.85
2023-04-25T10:40:34.669Z,16.13
2023-04-25T10:43:51.821Z,16.35
2023-04-25T10:46:24.112Z,16.41
2023-04-25T10:48:57.058Z,17.88
2023-04-25T10:51:37.193Z,18.84
2023-04-25T10:54:13.234Z,17.81
2023-04-25T10:56:43.120Z,17.97
2023-04-25T10:59:12.366Z,17.66
2023-04-25T11:01:53.354Z,17.55
2023-04-25T14:18:02.099Z,17.06
2023-04-25T14:20:31.294Z,15.89
2023-04-25T14:22:59.945Z,16.28
2023-04-25T14:25:28.963Z,15.85
2023-04-25T14:27:57.298Z,15.75
2023-04-25T14:30:25.706Z,15.33
2023-04-25T14:32:53.758Z,15.12
2023-04-25T14:35:22.423Z,15.86
2023-04-25T14:37:55.768Z,16.17
2023-04-25T14:40:31.088Z,16.05
2023-04-25T14:42:59.289Z,16.45
2023-04-25T14:45:27.672Z,16.25
2023-04-25T14:47:55.753Z,16.02
2023-04-25T14:50:23.874Z,16.33
2023-04-25T14:52:53.980Z,16.56
2023-04-25T14:55:21.889Z,16.53
2023-04-25T14:57:49.928Z,16.67
2023-04-25T15:00:19.667Z,16.34
2023-04-25T15:02:48.282Z,16.37
2023-04-25T15:05:16.455Z,15.83
2023-04-25T15:07:45.284Z,15.68
2023-04-25T15:10:16.842Z,15.41
2023-04-25T15:12:47.508Z,15.78
2023-04-25T15:15:25.376Z,15.49
2023-04-25T15:17:58.753Z,15.51
2023-04-25T15:20:28.767Z,14.92
2023-04-25T15:22:57.999Z,14.98
2023-04-25T15:25:26.225Z,15.01
2023-04-25T15:27:56.075Z,14.96
2023-04-25T15:30:24.821Z,14.76
2023-04-25T15:32:52.739Z,14.95
2023-04-25T15:35:21.164Z,14.88
2023-04-25T15:37:49.404Z,14.93
2023-04-25T15:40:17.885Z,14.30
2023-04-25T15:42:53.724Z,14.11
2023-04-25T15:45:26.323Z,14.25
2023-04-25T15:47:57.038Z,14.68
2023-04-25T15:50:26.178Z,14.20
2023-04-25T15:52:54.119Z,14.31
2023-04-25T15:55:22.867Z,13.82
2023-04-25T15:57:51.631Z,13.84
2023-04-25T16:00:22.364Z,14.29
2023-04-25T16:02:51.198Z,13.82
2023-04-25T16:05:19.866Z,14.26
2023-04-25T16:07:48.128Z,13.91
2023-04-25T16:10:20.180Z,14.16
2023-04-25T16:12:49.732Z,13.90
2023-04-25T16:15:18.479Z,14.16
2023-04-25T16:17:46.740Z,13.75
2023-04-25T16:20:15.371Z,13.98
2023-04-25T16:22:44.525Z,13.90
2023-04-25T16:25:13.657Z,13.44
2023-04-25T16:27:41.775Z,13.62
2023-04-25T16:30:11.743Z,14.06
2023-04-25T16:32:41.679Z,14.03
2023-04-25T16:35:10.934Z,13.73
2023-04-25T16:37:38.885Z,13.76
2023-04-25T16:40:10.076Z,13.61
2023-04-25T16:42:38.383Z,13.83
2023-04-25T16:45:06.794Z,14.23
2023-04-25T16:47:34.703Z,13.88
2023-04-25T16:50:03.301Z,13.67
2023-04-25T16:52:31.779Z,13.68
2023-04-25T16:54:59.728Z,13.74
2023-04-25T16:57:28.103Z,13.56
2023-04-25T16:59:56.834Z,12.87
2023-04-25T17:02:25.235Z,13.16
2023-04-25T17:04:54.358Z,13.01
2023-04-25T17:07:24.684Z,12.85
2023-04-25T17:09:52.701Z,12.78
2023-04-25T17:12:21.858Z,12.76
2023-04-25T17:14:50.600Z,12.60
2023-04-25T17:17:19.084Z,12.83
2023-04-25T17:19:47.474Z,12.85
2023-04-25T17:22:15.934Z,12.46
2023-04-25T17:24:43.878Z,12.45
2023-04-25T17:27:12.425Z,12.66
2023-04-25T17:29:40.299Z,12.52
2023-04-25T17:32:08.316Z,12.66
2023-04-25T17:34:38.086Z,12.77
2023-04-25T17:37:06.499Z,12.46
2023-04-25T17:39:34.444Z,12.65
2023-04-25T17:42:02.756Z,12.67
2023-04-25T17:44:30.694Z,12.28
2023-04-25T17:46:58.851Z,13.01
2023-04-25T17:49:27.064Z,13.07
2023-04-25T17:51:55.069Z,12.69
2023-04-25T17:54:22.948Z,12.83
2023-04-25T17:56:51.290Z,12.30
2023-04-25T17:59:19.569Z,12.66
2023-04-25T18:01:48.288Z,12.44
2023-04-25T18:04:17.792Z,12.51
2023-04-25T18:06:45.736Z,12.58
2023-04-25T18:09:23.530Z,12.62
2023-04-25T18:11:55.122Z,12.53
2023-04-25T18:14:24.315Z,12.23
2023-04-25T18:16:55.974Z,11.67
2023-04-25T18:19:24.077Z,11.68
2023-04-25T18:21:57.157Z,12.01
2023-04-25T18:24:27.514Z,11.95
2023-04-25T18:26:57.078Z,11.95
2023-04-25T18:29:33.051Z,11.78
2023-04-25T18:32:02.635Z,11.71
2023-04-25T18:34:31.559Z,11.80
2023-04-25T18:36:59.841Z,11.37
2023-04-25T18:39:28.232Z,11.43
2023-04-25T18:42:04.203Z,11.09
2023-04-25T18:44:40.205Z,11.24
2023-04-25T18:47:08.934Z,11.20
2023-04-25T18:49:37.806Z,11.08
2023-04-25T18:52:10.609Z,11.06
2023-04-25T18:54:39.514Z,11.22
2023-04-25T18:57:07.453Z,11.10
2023-04-25T18:59:35.363Z,10.79
2023-04-25T19:02:05.594Z,10.93
2023-04-25T19:04:34.040Z,10.81
2023-04-25T19:07:02.350Z,10.89
2023-04-25T19:09:30.623Z,10.93
2023-04-25T19:11:58.474Z,10.86
2023-04-25T19:14:27.853Z,10.92
2023-04-25T19:16:59.412Z,10.83
2023-04-25T19:19:27.804Z,10.61
2023-04-25T19:21:55.777Z,10.33
2023-04-25T19:24:24.033Z,10.12
2023-04-25T19:26:52.344Z,10.04
2023-04-25T19:29:20.250Z,10.46
2023-04-25T19:31:48.637Z,10.25
2023-04-25T19:34:16.529Z,10.10
2023-04-25T19:36:44.614Z,10.29
2023-04-25T19:39:13.244Z,10.21
2023-04-25T19:41:41.161Z,10.49
2023-04-25T19:44:10.001Z,10.63
2023-04-25T19:46:38.832Z,11.00
2023-04-25T19:49:07.819Z,10.35
2023-04-25T19:51:36.914Z,10.74
2023-04-25T19:54:05.425Z,10.64
2023-04-25T19:56:33.379Z,10.84
2023-04-25T19:59:01.271Z,10.86
2023-04-25T20:01:29.796Z,10.58
2023-04-25T20:03:58.312Z,10.53
2023-04-25T20:06:27.352Z,10.54
2023-04-25T20:08:55.807Z,10.54
2023-04-25T20:11:24.277Z,10.49
2023-04-25T20:13:52.493Z,10.49
2023-04-25T20:16:22.020Z,10.63
2023-04-25T20:18:50.839Z,10.46
2023-04-25T20:21:20.182Z,10.20
2023-04-25T20:23:48.207Z,10.34
2023-04-25T20:26:16.614Z,10.27
2023-04-25T20:28:44.608Z,10.27
2023-04-25T20:31:12.621Z,10.18
2023-04-25T20:33:43.854Z,10.10
2023-04-25T20:36:12.058Z,10.14
2023-04-25T20:38:40.425Z,9.97
2023-04-25T20:41:08.491Z,10.01
2023-04-25T20:43:37.693Z,10.01
2023-04-25T20:46:06.586Z,9.78
2023-04-25T20:48:34.743Z,10.22
2023-04-25T20:51:02.719Z,10.26
2023-04-25T20:53:31.432Z,10.12
2023-04-25T20:55:59.823Z,9.98
2023-04-25T20:58:27.693Z,9.85
2023-04-25T21:00:56.728Z,9.75
2023-04-25T21:03:26.358Z,9.72
2023-04-25T21:05:54.860Z,9.77
2023-04-25T21:08:23.081Z,9.75
2023-04-25T21:10:51.753Z,9.41
2023-04-25T21:13:19.738Z,9.28
2023-04-25T21:15:48.449Z,9.20
2023-04-25T21:18:16.492Z,9.35
2023-04-25T21:20:44.398Z,9.54
2023-04-25T21:23:12.749Z,8.91
2023-04-25T21:25:41.550Z,9.08
2023-04-25T21:28:09.515Z,8.94
2023-04-25T21:30:37.774Z,8.81
2023-04-25T21:33:05.781Z,8.95
2023-04-25T21:35:33.925Z,8.79
2023-04-25T21:38:02.354Z,8.83
2023-04-25T21:40:30.259Z,8.77
2023-04-25T21:42:58.122Z,9.09
2023-04-25T21:45:26.589Z,8.70
2023-04-25T21:47:55.179Z,8.46
2023-04-25T21:50:23.161Z,8.77
2023-04-25T21:52:52.015Z,8.79
2023-04-25T21:55:22.216Z,8.42
2023-04-25T21:57:50.126Z,8.35
2023-04-25T22:00:24.710Z,8.57
2023-04-25T22:02:54.008Z,8.10
2023-04-25T22:05:22.846Z,8.28
2023-04-25T22:07:51.514Z,8.46
2023-04-25T22:10:21.519Z,8.28
2023-04-25T22:12:52.191Z,8.18
2023-04-25T22:15:24.007Z,8.07
2023-04-25T22:17:55.461Z,8.01
2023-04-25T22:20:28.219Z,7.92
2023-04-25T22:22:56.644Z,8.31
2023-04-25T22:25:25.284Z,8.30
2023-04-25T22:27:53.212Z,8.42
2023-04-25T22:30:21.821Z,8.80
2023-04-25T22:32:50.201Z,8.29
2023-04-25T22:35:18.106Z,8.22
2023-04-25T22:37:46.256Z,8.59
2023-04-25T22:40:15.709Z,8.91
2023-04-25T22:42:44.429Z,8.78
2023-04-25T22:45:12.468Z,9.07
2023-04-25T22:47:40.902Z,8.87
2023-04-25T22:50:13.746Z,9.15
2023-04-25T22:52:43.307Z,8.91
2023-04-25T22:55:13.257Z,8.80
2023-04-25T22:57:41.676Z,8.71
2023-04-25T23:00:20.264Z,8.72
2023-04-25T23:02:48.821Z,8.79
2023-04-25T23:05:17.322Z,9.15
2023-04-25T23:07:45.480Z,8.88
2023-04-25T23:10:14.460Z,8.72
2023-04-25T23:12:43.000Z,8.94
2023-04-25T23:15:12.535Z,9.16
2023-04-25T23:17:40.950Z,8.96
2023-04-25T23:20:11.291Z,9.10
2023-04-25T23:22:39.711Z,8.92
2023-04-25T23:25:08.845Z,8.94
2023-04-25T23:27:37.578Z,9.23
2023-04-25T23:30:06.534Z,8.86
2023-04-25T23:32:34.523Z,8.98
2023-04-25T23:35:05.169Z,8.77
2023-04-25T23:37:40.592Z,8.96
2023-04-25T23:40:12.794Z,8.90
2023-04-25T23:42:42.232Z,8.80
2023-04-25T23:45:11.219Z,8.83
2023-04-25T23:47:39.120Z,8.94
2023-04-25T23:50:08.196Z,9.06
2023-04-25T23:52:36.596Z,9.26
2023-04-25T23:55:05.697Z,8.97
2023-04-25T23:57:33.963Z,8.66
